Time;durP1;ratioP1;P1;durP2;ratioP2;P2;SDS_P1;SDS_P2;PMS_P1;PMS_P2;Temp;Humidity;BMP_temperature;BMP_pressure;BME280_temperature;BME280_humidity;BME280_pressure;Samples;Min_cycle;Max_cycle;Signal;HPM_P1;HPM_P2
2021/12/01 00:00:45;;;;;;;;;;;;;;;;;;2083793;28;1199;-83
2021/12/01 00:01:47;;;;;;;;;;;;;;;;;;2092171;28;874;-84
2021/12/01 00:02:52;;;;;;;;;;;;;;;;;;2092078;28;1906;-84
2021/12/01 00:03:54;;;;;;;;;;;;;;;;;;2084577;28;1532;-84
2021/12/01 00:04:56;;;;;;;;;;;;;;;;;;2083967;28;1171;-84
2021/12/01 00:05:58;;;;;;;;;;;;;;;;;;2083723;28;2002;-83
2021/12/01 00:06:58;;;;;;;;;;;;;;;;;;2083312;28;1321;-84
2021/12/01 00:08:01;;;;;;;;;;;;;;;;;;2075474;28;1327;-84
2021/12/01 00:09:02;;;;;;;;;;;;;;;;;;2075535;28;1377;-84
2021/12/01 00:10:04;;;;;;;;;;;;;;;;;;2075703;28;1222;-84
2021/12/01 00:11:05;;;;;;;;;;;;;;;;;;2075651;28;1282;-84
2021/12/01 00:12:07;;;;;;;;;;;;;;;;;;2067518;28;1358;-84
2021/12/01 00:13:10;;;;;;;;;;;;;;;;;;2075192;28;1450;-84
2021/12/01 00:14:12;;;;;;;;;;;;;;;;;;2084545;28;875;-84
2021/12/01 00:15:13;;;;;;;;;;;;;;;;;;2083734;28;1279;-84
2021/12/01 00:16:14;;;;;;;;;;;;;;;;;;2083721;28;1219;-84
2021/12/01 00:17:15;;;;;;;;;;;;;;;;;;2083726;28;995;-84
2021/12/01 00:18:17;;;;;;;;;;;;;;;;;;2083945;28;1275;-84
2021/12/01 00:19:19;;;;;;;;;;;;;;;;;;2075616;28;1264;-84
2021/12/01 00:20:21;;;;;;;;;;;;;;;;;;2083796;28;1002;-84
2021/12/01 00:21:23;;;;;;;;;;;;;;;;;;2083343;28;1438;-85
2021/12/01 00:22:24;;;;;;;;;;;;;;;;;;2075913;28;1247;-85
2021/12/01 00:23:26;;;;;;;;;;;;;;;;;;2067079;28;1945;-85
2021/12/01 00:24:26;;;;;;;;;;;;;;;;;;2067285;28;1247;-85
2021/12/01 00:25:29;;;;;;;;;;;;;;;;;;2083546;28;1278;-85
2021/12/01 00:26:31;;;;;;;;;;;;;;;;;;2084240;28;872;-84
2021/12/01 00:27:31;;;;;;;;;;;;;;;;;;2083584;28;1399;-84
2021/12/01 00:28:35;;;;;;;;;;;;;;;;;;2083973;28;792;-84
2021/12/01 00:29:36;;;;;;;;;;;;;;;;;;2083515;28;1283;-83
2021/12/01 00:30:40;;;;;;;;;;;;;;;;;;2083408;28;1887;-84
2021/12/01 00:31:42;;;;;;;;;;;;;;;;;;2083281;28;1472;-84
2021/12/01 00:32:44;;;;;;;;;;;;;;;;;;2083336;28;1298;-84
2021/12/01 00:33:44;;;;;;;;;;;;;;;;;;2083277;28;1335;-84
2021/12/01 00:34:46;;;;;;;;;;;;;;;;;;2075331;28;1303;-85
2021/12/01 00:35:50;;;;;;;;;;;;;;;;;;2091666;28;1453;-85
2021/12/01 00:36:51;;;;;;;;;;;;;;;;;;2091635;28;1183;-86
2021/12/01 00:37:52;;;;;;;;;;;;;;;;;;2075360;28;1259;-85
2021/12/01 00:38:54;;;;;;;;;;;;;;;;;;2091922;28;1203;-85
2021/12/01 00:39:55;;;;;;;;;;;;;;;;;;2091852;28;1303;-84
2021/12/01 00:40:57;;;;;;;;;;;;;;;;;;2091859;28;1211;-84
2021/12/01 00:41:59;;;;;;;;;;;;;;;;;;2091343;28;1314;-85
2021/12/01 00:43:00;;;;;;;;;;;;;;;;;;2083261;28;1977;-84
2021/12/01 00:44:02;;;;;;;;;;;;;;;;;;2083678;28;940;-84
2021/12/01 00:45:07;;;;;;;;;;;;;;;;;;2083401;28;1289;-84
2021/12/01 00:46:13;;;;;;;;;;;;;;;;;;2080432;28;1402;-84
2021/12/01 00:47:14;;;;;;;;;;;;;;;;;;2083488;28;1378;-84
2021/12/01 00:48:16;;;;;;;;;;;;;;;;;;2091763;28;1476;-83
2021/12/01 00:49:17;;;;;;;;;;;;;;;;;;2099630;28;1450;-84
2021/12/01 00:50:20;;;;;;;;;;;;;;;;;;2084045;28;1304;-84
2021/12/01 00:51:24;;;;;;;;;;;;;;;;;;2083809;28;1877;-85
2021/12/01 00:52:26;;;;;;;;;;;;;;;;;;2083756;28;1290;-85
2021/12/01 00:53:28;;;;;;;;;;;;;;;;;;2075470;28;1352;-84
2021/12/01 00:54:29;;;;;;;;;;;;;;;;;;2075516;28;1491;-83
2021/12/01 00:55:31;;;;;;;;;;;;;;;;;;2082968;28;1401;-83
2021/12/01 00:56:33;;;;;;;;;;;;;;;;;;2082832;28;1291;-82
2021/12/01 00:57:34;;;;;;;;;;;;;;;;;;2083398;28;860;-83
2021/12/01 00:58:35;;;;;;;;;;;;;;;;;;2083421;28;1298;-83
2021/12/01 00:59:36;;;;;;;;;;;;;;;;;;2075135;28;1271;-83
2021/12/01 01:00:38;;;;;;;;;;;;;;;;;;2075241;28;2092;-82
2021/12/01 01:01:38;;;;;;;;;;;;;;;;;;2083455;28;1231;-83
2021/12/01 01:02:40;;;;;;;;;;;;;;;;;;2083566;28;1211;-83
2021/12/01 01:03:41;;;;;;;;;;;;;;;;;;2074499;28;1970;-83
2021/12/01 01:04:42;;;;;;;;;;;;;;;;;;2075166;28;1212;-83
2021/12/01 01:05:44;;;;;;;;;;;;;;;;;;2074996;28;1306;-83
2021/12/01 01:06:46;;;;;;;;;;;;;;;;;;2083455;28;769;-83
2021/12/01 01:07:48;;;;;;;;;;;;;;;;;;2083840;28;828;-83
2021/12/01 01:08:50;;;;;;;;;;;;;;;;;;2083400;28;1225;-83
2021/12/01 01:09:51;;;;;;;;;;;;;;;;;;2075004;28;1212;-84
2021/12/01 01:11:09;;;;;;;;;;;;;;;;;;2075252;28;1383;-84
2021/12/01 01:16:23;;;;;;;;;;;;;;;;;;2068675;28;1311;-84
2021/12/01 01:17:36;;;;;;;;;;;;;;;;;;2090052;28;892;-84
2021/12/01 01:18:39;;;;;;;;;;;;;;;;;;2075265;28;1208;-84
2021/12/01 01:19:40;;;;;;;;;;;;;;;;;;2075349;28;1188;-84
2021/12/01 01:20:42;;;;;;;;;;;;;;;;;;2083299;28;1228;-85
2021/12/01 01:21:47;;;;;;;;;;;;;;;;;;2082709;28;1280;-84
2021/12/01 01:22:50;;;;;;;;;;;;;;;;;;2075715;28;1363;-84
2021/12/01 01:23:52;;;;;;;;;;;;;;;;;;2083295;28;1987;-84
2021/12/01 01:24:53;;;;;;;;;;;;;;;;;;2083402;28;1317;-87
2021/12/01 01:25:54;;;;;;;;;;;;;;;;;;2084901;28;781;-85
2021/12/01 01:26:56;;;;;;;;;;;;;;;;;;2084091;28;928;-84
2021/12/01 01:27:56;;;;;;;;;;;;;;;;;;2082905;28;1312;-85
2021/12/01 01:28:58;;;;;;;;;;;;;;;;;;2091697;28;1335;-85
2021/12/01 01:29:59;;;;;;;;;;;;;;;;;;2091357;28;1345;-84
2021/12/01 01:31:01;;;;;;;;;;;;;;;;;;2082988;28;1376;-84
2021/12/01 01:32:03;;;;;;;;;;;;;;;;;;2074744;28;1350;-84
2021/12/01 01:33:03;;;;;;;;;;;;;;;;;;2075310;28;1323;-84
2021/12/01 01:34:05;;;;;;;;;;;;;;;;;;2075301;28;1410;-84
2021/12/01 01:35:07;;;;;;;;;;;;;;;;;;2083025;28;1303;-84
2021/12/01 01:36:09;;;;;;;;;;;;;;;;;;2075182;28;1295;-84
2021/12/01 01:37:09;;;;;;;;;;;;;;;;;;2074962;28;1214;-84
2021/12/01 01:38:12;;;;;;;;;;;;;;;;;;2083288;28;1210;-84
2021/12/01 01:39:14;;;;;;;;;;;;;;;;;;2083069;28;1182;-85
2021/12/01 01:40:15;;;;;;;;;;;;;;;;;;2083447;28;1061;-84
2021/12/01 01:41:18;;;;;;;;;;;;;;;;;;2083125;28;1302;-84
2021/12/01 01:42:18;;;;;;;;;;;;;;;;;;2083477;28;796;-83
2021/12/01 01:43:21;;;;;;;;;;;;;;;;;;2082272;28;1977;-84
2021/12/01 01:44:22;;;;;;;;;;;;;;;;;;2083015;28;1377;-84
2021/12/01 01:45:23;;;;;;;;;;;;;;;;;;2091067;28;1259;-84
2021/12/01 01:46:29;;;;;;;;;;;;;;;;;;2098746;28;1923;-82
2021/12/01 01:47:31;;;;;;;;;;;;;;;;;;2082786;28;1270;-82
2021/12/01 01:48:32;;;;;;;;;;;;;;;;;;2082967;28;1306;-83
2021/12/01 01:49:47;;;;;;;;;;;;;;;;;;2082930;28;1327;-83
2021/12/01 01:50:47;;;;;;;;;;;;;;;;;;2083143;28;1383;-83
2021/12/01 01:51:49;;;;;;;;;;;;;;;;;;2091249;28;1222;-83
2021/12/01 01:52:50;;;;;;;;;;;;;;;;;;2091200;28;1517;-83
2021/12/01 01:53:55;;;;;;;;;;;;;;;;;;2083185;28;808;-83
2021/12/01 01:54:56;;;;;;;;;;;;;;;;;;2083015;28;1211;-83
2021/12/01 01:55:58;;;;;;;;;;;;;;;;;;2082974;28;1193;-83
2021/12/01 01:56:59;;;;;;;;;;;;;;;;;;2091475;28;1319;-83
2021/12/01 01:58:01;;;;;;;;;;;;;;;;;;2099350;28;1183;-83
2021/12/01 01:59:03;;;;;;;;;;;;;;;;;;2082738;28;1470;-83
2021/12/01 02:00:08;;;;;;;;;;;;;;;;;;2083111;28;848;-83
2021/12/01 02:01:25;;;;;;;;;;;;;;;;;;2083391;28;704;-83
2021/12/01 02:02:26;;;;;;;;;;;;;;;;;;2082910;28;1302;-83
2021/12/01 02:03:28;;;;;;;;;;;;;;;;;;2082965;28;1910;-83
2021/12/01 02:04:32;;;;;;;;;;;;;;;;;;2083041;28;881;-83
2021/12/01 02:05:37;;;;;;;;;;;;;;;;;;2083400;28;932;-83
2021/12/01 02:06:38;;;;;;;;;;;;;;;;;;2091095;28;1260;-83
2021/12/01 02:07:40;;;;;;;;;;;;;;;;;;2091045;28;956;-83
2021/12/01 02:08:42;;;;;;;;;;;;;;;;;;2099588;28;1282;-83
2021/12/01 02:09:45;;;;;;;;;;;;;;;;;;2090663;28;1437;-83
2021/12/01 02:10:48;;;;;;;;;;;;;;;;;;2082993;28;884;-84
2021/12/01 02:11:52;;;;;;;;;;;;;;;;;;2082617;28;1240;-83
2021/12/01 02:12:54;;;;;;;;;;;;;;;;;;2082973;28;963;-83
2021/12/01 02:13:55;;;;;;;;;;;;;;;;;;2083407;28;832;-85
2021/12/01 02:14:57;;;;;;;;;;;;;;;;;;2083086;28;1038;-83
2021/12/01 02:15:58;;;;;;;;;;;;;;;;;;2074644;28;1192;-83
2021/12/01 02:17:00;;;;;;;;;;;;;;;;;;2082930;28;959;-83
2021/12/01 02:18:00;;;;;;;;;;;;;;;;;;2082985;28;1339;-83
2021/12/01 02:19:03;;;;;;;;;;;;;;;;;;2091074;28;1256;-83
2021/12/01 02:20:10;;;;;;;;;;;;;;;;;;2091060;28;1298;-83
2021/12/01 02:21:15;;;;;;;;;;;;;;;;;;2075003;28;1315;-82
2021/12/01 02:22:16;;;;;;;;;;;;;;;;;;2074813;28;1304;-83
2021/12/01 02:23:17;;;;;;;;;;;;;;;;;;2074515;28;1995;-83
2021/12/01 02:24:21;;;;;;;;;;;;;;;;;;2091208;28;1303;-83
2021/12/01 02:25:23;;;;;;;;;;;;;;;;;;2090495;28;1190;-83
2021/12/01 02:26:26;;;;;;;;;;;;;;;;;;2074693;28;1214;-83
2021/12/01 02:27:26;;;;;;;;;;;;;;;;;;2074855;28;1164;-83
2021/12/01 02:28:29;;;;;;;;;;;;;;;;;;2074639;28;1303;-83
2021/12/01 02:29:31;;;;;;;;;;;;;;;;;;2082600;28;1320;-83
2021/12/01 02:30:31;;;;;;;;;;;;;;;;;;2074983;28;1294;-83
2021/12/01 02:31:36;;;;;;;;;;;;;;;;;;2082875;28;773;-83
2021/12/01 02:32:36;;;;;;;;;;;;;;;;;;2099318;28;1372;-83
2021/12/01 02:33:38;;;;;;;;;;;;;;;;;;2090921;28;1355;-83
2021/12/01 02:34:44;;;;;;;;;;;;;;;;;;2074601;28;1564;-83
2021/12/01 02:35:44;;;;;;;;;;;;;;;;;;2083998;28;2069;-83
2021/12/01 02:36:49;;;;;;;;;;;;;;;;;;2091190;28;1377;-83
2021/12/01 02:37:50;;;;;;;;;;;;;;;;;;2082802;28;1294;-83
2021/12/01 02:38:52;;;;;;;;;;;;;;;;;;2091090;28;767;-83
2021/12/01 02:39:52;;;;;;;;;;;;;;;;;;2091371;28;836;-84
2021/12/01 02:40:54;;;;;;;;;;;;;;;;;;2090665;28;1212;-83
2021/12/01 02:41:57;;;;;;;;;;;;;;;;;;2082617;28;1386;-83
2021/12/01 02:42:57;;;;;;;;;;;;;;;;;;2082842;28;1295;-84
2021/12/01 02:43:59;;;;;;;;;;;;;;;;;;2099209;28;1957;-83
2021/12/01 02:45:02;;;;;;;;;;;;;;;;;;2098990;28;1207;-84
2021/12/01 02:46:03;;;;;;;;;;;;;;;;;;2099113;28;1861;-83
2021/12/01 02:47:05;;;;;;;;;;;;;;;;;;2099136;28;1246;-83
2021/12/01 02:48:05;;;;;;;;;;;;;;;;;;2099363;28;1183;-83
2021/12/01 02:49:07;;;;;;;;;;;;;;;;;;2098962;28;1202;-83
2021/12/01 02:50:08;;;;;;;;;;;;;;;;;;2090989;28;953;-83
2021/12/01 02:51:11;;;;;;;;;;;;;;;;;;2090640;28;2032;-83
2021/12/01 02:52:15;;;;;;;;;;;;;;;;;;2099174;28;1337;-83
2021/12/01 02:53:20;;;;;;;;;;;;;;;;;;2098599;28;843;-83
2021/12/01 02:54:20;;;;;;;;;;;;;;;;;;2083309;28;964;-83
2021/12/01 02:55:22;;;;;;;;;;;;;;;;;;2082908;28;822;-83
2021/12/01 02:56:23;;;;;;;;;;;;;;;;;;2082688;28;1970;-83
2021/12/01 02:57:25;;;;;;;;;;;;;;;;;;2074357;28;1377;-83
2021/12/01 02:58:27;;;;;;;;;;;;;;;;;;2082666;28;999;-83
2021/12/01 02:59:29;;;;;;;;;;;;;;;;;;2082496;28;1334;-85
2021/12/01 03:00:30;;;;;;;;;;;;;;;;;;2074786;28;1391;-84
2021/12/01 03:01:31;;;;;;;;;;;;;;;;;;2082853;28;1384;-84
2021/12/01 03:02:32;;;;;;;;;;;;;;;;;;2074614;28;1450;-84
2021/12/01 03:03:34;;;;;;;;;;;;;;;;;;2074513;28;1910;-84
2021/12/01 03:04:36;;;;;;;;;;;;;;;;;;2074786;28;1252;-84
2021/12/01 03:05:37;;;;;;;;;;;;;;;;;;2074264;28;1327;-84
2021/12/01 03:06:40;;;;;;;;;;;;;;;;;;2082913;28;875;-84
2021/12/01 03:07:43;;;;;;;;;;;;;;;;;;2082754;28;1331;-84
2021/12/01 03:08:46;;;;;;;;;;;;;;;;;;2074626;28;1430;-84
2021/12/01 03:09:47;;;;;;;;;;;;;;;;;;2074401;28;1193;-85
2021/12/01 03:10:50;;;;;;;;;;;;;;;;;;2082751;28;2061;-84
2021/12/01 03:11:52;;;;;;;;;;;;;;;;;;2091211;28;1235;-84
2021/12/01 03:12:53;;;;;;;;;;;;;;;;;;2090878;28;1322;-82
2021/12/01 03:13:54;;;;;;;;;;;;;;;;;;2074376;28;1253;-83
2021/12/01 03:14:56;;;;;;;;;;;;;;;;;;2074521;28;1212;-82
2021/12/01 03:15:58;;;;;;;;;;;;;;;;;;2082224;28;2030;-85
2021/12/01 03:16:58;;;;;;;;;;;;;;;;;;2082466;28;1195;-83
2021/12/01 03:18:00;;;;;;;;;;;;;;;;;;2082389;28;1362;-83
2021/12/01 03:19:01;;;;;;;;;;;;;;;;;;2082405;28;1389;-83
2021/12/01 03:20:03;;;;;;;;;;;;;;;;;;2090870;28;1258;-83
2021/12/01 03:21:04;;;;;;;;;;;;;;;;;;2094372;28;1354;-82
2021/12/01 03:22:06;;;;;;;;;;;;;;;;;;2090922;28;798;-82
2021/12/01 03:23:08;;;;;;;;;;;;;;;;;;2082307;28;1246;-82
2021/12/01 03:24:10;;;;;;;;;;;;;;;;;;2074513;28;1966;-83
2021/12/01 03:25:12;;;;;;;;;;;;;;;;;;2082489;28;1027;-83
2021/12/01 03:26:14;;;;;;;;;;;;;;;;;;2082853;28;2060;-82
2021/12/01 03:27:15;;;;;;;;;;;;;;;;;;2082185;28;1227;-82
2021/12/01 03:28:16;;;;;;;;;;;;;;;;;;2090774;28;1175;-83
2021/12/01 03:29:17;;;;;;;;;;;;;;;;;;2090603;28;1206;-82
2021/12/01 03:30:19;;;;;;;;;;;;;;;;;;2090660;28;1282;-83
2021/12/01 03:31:19;;;;;;;;;;;;;;;;;;2090463;28;2013;-82
2021/12/01 03:32:21;;;;;;;;;;;;;;;;;;2074469;28;1347;-82
2021/12/01 03:33:22;;;;;;;;;;;;;;;;;;2074122;28;1402;-82
2021/12/01 03:34:24;;;;;;;;;;;;;;;;;;2082400;28;935;-82
2021/12/01 03:35:25;;;;;;;;;;;;;;;;;;2082551;28;1237;-82
2021/12/01 03:36:26;;;;;;;;;;;;;;;;;;2090561;28;1421;-83
2021/12/01 03:37:27;;;;;;;;;;;;;;;;;;2098737;28;1166;-83
2021/12/01 03:38:30;;;;;;;;;;;;;;;;;;2090873;28;867;-83
2021/12/01 03:39:31;;;;;;;;;;;;;;;;;;2082864;28;1057;-82
2021/12/01 03:40:32;;;;;;;;;;;;;;;;;;2083036;28;911;-84
2021/12/01 03:41:34;;;;;;;;;;;;;;;;;;2089497;28;1271;-84
2021/12/01 03:42:35;;;;;;;;;;;;;;;;;;2090986;28;1386;-84
2021/12/01 03:43:37;;;;;;;;;;;;;;;;;;2090602;28;870;-84
2021/12/01 03:44:38;;;;;;;;;;;;;;;;;;2082547;28;1980;-83
2021/12/01 03:45:40;;;;;;;;;;;;;;;;;;2082376;28;1437;-83
2021/12/01 03:54:30;;;;;;;;;;;;;;;;;;2083072;28;627;-82
2021/12/01 03:55:30;;;;;;;;;;;;;;;;;;2098811;28;1206;-83
2021/12/01 03:56:33;;;;;;;;;;;;;;;;;;2090711;28;1330;-83
2021/12/01 03:57:34;;;;;;;;;;;;;;;;;;2090956;28;1296;-83
2021/12/01 03:58:36;;;;;;;;;;;;;;;;;;2090631;28;1371;-83
2021/12/01 03:59:36;;;;;;;;;;;;;;;;;;2082212;28;1235;-83
2021/12/01 04:00:38;;;;;;;;;;;;;;;;;;2098979;28;1389;-83
2021/12/01 04:01:38;;;;;;;;;;;;;;;;;;2098673;28;850;-83
2021/12/01 04:02:41;;;;;;;;;;;;;;;;;;2082169;28;1376;-82
2021/12/01 04:03:41;;;;;;;;;;;;;;;;;;2082375;28;1054;-84
2021/12/01 04:04:43;;;;;;;;;;;;;;;;;;2082312;28;1971;-83
2021/12/01 04:05:44;;;;;;;;;;;;;;;;;;2082208;28;1305;-84
2021/12/01 04:06:45;;;;;;;;;;;;;;;;;;2082963;28;1219;-83
2021/12/01 04:07:46;;;;;;;;;;;;;;;;;;2075681;28;1520;-84
2021/12/01 04:08:48;;;;;;;;;;;;;;;;;;2083939;28;1213;-83
2021/12/01 04:09:51;;;;;;;;;;;;;;;;;;2091874;28;1227;-84
2021/12/01 04:10:52;;;;;;;;;;;;;;;;;;2075701;28;1250;-83
2021/12/01 04:11:53;;;;;;;;;;;;;;;;;;2075498;28;1198;-84
2021/12/01 04:12:55;;;;;;;;;;;;;;;;;;2090077;28;1230;-84
2021/12/01 04:13:56;;;;;;;;;;;;;;;;;;2091949;28;1313;-83
2021/12/01 04:14:58;;;;;;;;;;;;;;;;;;2083741;28;1429;-85
2021/12/01 04:15:58;;;;;;;;;;;;;;;;;;2083859;28;1425;-83
2021/12/01 04:17:00;;;;;;;;;;;;;;;;;;2083517;28;1499;-83
2021/12/01 04:18:01;;;;;;;;;;;;;;;;;;2083742;28;1200;-83
2021/12/01 04:19:03;;;;;;;;;;;;;;;;;;2091677;28;1100;-83
2021/12/01 04:20:04;;;;;;;;;;;;;;;;;;2092639;28;990;-83
2021/12/01 04:21:06;;;;;;;;;;;;;;;;;;2090861;28;1342;-84
2021/12/01 04:22:06;;;;;;;;;;;;;;;;;;2092137;28;872;-83
2021/12/01 04:23:08;;;;;;;;;;;;;;;;;;2091508;28;1249;-84
2021/12/01 04:24:09;;;;;;;;;;;;;;;;;;2075117;28;1977;-83
2021/12/01 04:25:13;;;;;;;;;;;;;;;;;;2075303;28;1210;-84
2021/12/01 04:26:18;;;;;;;;;;;;;;;;;;2075631;28;1196;-83
2021/12/01 04:27:20;;;;;;;;;;;;;;;;;;2091849;28;1256;-84
2021/12/01 04:28:21;;;;;;;;;;;;;;;;;;2092405;28;1389;-83
2021/12/01 04:29:23;;;;;;;;;;;;;;;;;;2091792;28;1338;-84
2021/12/01 04:30:25;;;;;;;;;;;;;;;;;;2083791;28;1176;-83
2021/12/01 04:31:26;;;;;;;;;;;;;;;;;;2083719;28;1363;-83
2021/12/01 04:32:28;;;;;;;;;;;;;;;;;;2092131;28;817;-84
2021/12/01 04:33:28;;;;;;;;;;;;;;;;;;2100176;28;1323;-84
2021/12/01 04:34:30;;;;;;;;;;;;;;;;;;2100210;28;1496;-84
2021/12/01 04:35:33;;;;;;;;;;;;;;;;;;2083380;28;1271;-83
2021/12/01 04:36:37;;;;;;;;;;;;;;;;;;2091510;28;2088;-84
2021/12/01 04:37:38;;;;;;;;;;;;;;;;;;2091648;28;1390;-84
2021/12/01 04:38:40;;;;;;;;;;;;;;;;;;2083947;28;1261;-84
2021/12/01 04:39:41;;;;;;;;;;;;;;;;;;2091591;28;1369;-84
2021/12/01 04:40:45;;;;;;;;;;;;;;;;;;2091874;28;1249;-84
2021/12/01 04:41:51;;;;;;;;;;;;;;;;;;2083528;28;1168;-83
2021/12/01 04:42:53;;;;;;;;;;;;;;;;;;2075848;28;1269;-84
2021/12/01 04:43:53;;;;;;;;;;;;;;;;;;2075191;28;1363;-84
2021/12/01 04:44:55;;;;;;;;;;;;;;;;;;2077749;28;1914;-84
2021/12/01 04:45:58;;;;;;;;;;;;;;;;;;2074589;28;1242;-84
2021/12/01 04:47:02;;;;;;;;;;;;;;;;;;2091810;28;1370;-84
2021/12/01 04:48:04;;;;;;;;;;;;;;;;;;2099523;28;851;-83
2021/12/01 04:49:04;;;;;;;;;;;;;;;;;;2084354;28;1316;-84
2021/12/01 04:50:07;;;;;;;;;;;;;;;;;;2083350;28;1229;-83
2021/12/01 04:51:07;;;;;;;;;;;;;;;;;;2082363;28;1764;-83
2021/12/01 04:52:10;;;;;;;;;;;;;;;;;;2083466;28;1240;-83
2021/12/01 04:53:11;;;;;;;;;;;;;;;;;;2083617;28;1255;-83
2021/12/01 04:54:12;;;;;;;;;;;;;;;;;;2083746;28;1561;-82
2021/12/01 04:55:15;;;;;;;;;;;;;;;;;;2083212;28;1265;-83
2021/12/01 04:56:17;;;;;;;;;;;;;;;;;;2085374;28;1851;-83
2021/12/01 04:57:19;;;;;;;;;;;;;;;;;;2083175;28;1311;-82
2021/12/01 04:58:20;;;;;;;;;;;;;;;;;;2089379;28;1422;-84
2021/12/01 04:59:22;;;;;;;;;;;;;;;;;;2091772;28;1302;-83
2021/12/01 05:00:27;;;;;;;;;;;;;;;;;;2091496;28;1254;-83
2021/12/01 05:01:27;;;;;;;;;;;;;;;;;;2076248;28;1208;-83
2021/12/01 05:02:29;;;;;;;;;;;;;;;;;;2075113;28;738;-84
2021/12/01 05:03:30;;;;;;;;;;;;;;;;;;2077043;28;1268;-84
2021/12/01 05:04:32;;;;;;;;;;;;;;;;;;2083125;28;1978;-83
2021/12/01 05:05:33;;;;;;;;;;;;;;;;;;2083385;28;1451;-83
2021/12/01 05:06:34;;;;;;;;;;;;;;;;;;2099305;28;2067;-83
2021/12/01 05:07:35;;;;;;;;;;;;;;;;;;2099691;28;1282;-83
2021/12/01 05:08:37;;;;;;;;;;;;;;;;;;2083502;28;1271;-82
2021/12/01 05:09:37;;;;;;;;;;;;;;;;;;2083142;28;1343;-83
2021/12/01 05:10:39;;;;;;;;;;;;;;;;;;2091010;28;1061;-81
2021/12/01 05:11:41;;;;;;;;;;;;;;;;;;2091295;28;1345;-81
2021/12/01 05:12:43;;;;;;;;;;;;;;;;;;2091095;28;906;-81
2021/12/01 05:13:44;;;;;;;;;;;;;;;;;;2091128;28;1618;-81
2021/12/01 05:14:45;;;;;;;;;;;;;;;;;;2083041;28;1585;-81
2021/12/01 05:15:46;;;;;;;;;;;;;;;;;;2089922;28;1071;-81
2021/12/01 05:16:48;;;;;;;;;;;;;;;;;;2083111;28;1681;-79
2021/12/01 05:17:49;;;;;;;;;;;;;;;;;;2074795;28;1241;-81
2021/12/01 05:18:51;;;;;;;;;;;;;;;;;;2098653;28;1340;-81
2021/12/01 05:19:53;;;;;;;;;;;;;;;;;;2099297;28;1218;-81
2021/12/01 05:20:53;;;;;;;;;;;;;;;;;;2090665;28;1370;-81
2021/12/01 05:21:55;;;;;;;;;;;;;;;;;;2083029;28;1377;-81
2021/12/01 05:22:56;;;;;;;;;;;;;;;;;;2080279;28;1289;-81
2021/12/01 05:23:57;;;;;;;;;;;;;;;;;;2082893;28;1259;-81
2021/12/01 05:24:58;;;;;;;;;;;;;;;;;;2082788;28;1981;-81
2021/12/01 05:26:00;;;;;;;;;;;;;;;;;;2074718;28;1451;-82
2021/12/01 05:27:04;;;;;;;;;;;;;;;;;;2074726;28;1309;-82
2021/12/01 05:28:05;;;;;;;;;;;;;;;;;;2083990;28;1360;-81
2021/12/01 05:29:07;;;;;;;;;;;;;;;;;;2091173;28;1292;-81
2021/12/01 05:30:08;;;;;;;;;;;;;;;;;;2082931;28;1352;-81
2021/12/01 05:31:10;;;;;;;;;;;;;;;;;;2082620;28;1887;-82
2021/12/01 05:32:10;;;;;;;;;;;;;;;;;;2082974;28;1578;-81
2021/12/01 05:33:14;;;;;;;;;;;;;;;;;;2090880;28;1303;-81
2021/12/01 05:34:15;;;;;;;;;;;;;;;;;;2082877;28;1297;-82
2021/12/01 05:35:17;;;;;;;;;;;;;;;;;;2082894;28;887;-82
2021/12/01 05:36:17;;;;;;;;;;;;;;;;;;2082865;28;1239;-81
2021/12/01 05:37:19;;;;;;;;;;;;;;;;;;2082995;28;1017;-80
2021/12/01 05:38:20;;;;;;;;;;;;;;;;;;2086140;28;1323;-79
2021/12/01 05:39:21;;;;;;;;;;;;;;;;;;2082938;28;1187;-82
2021/12/01 05:40:22;;;;;;;;;;;;;;;;;;2082871;28;1528;-82
2021/12/01 05:41:24;;;;;;;;;;;;;;;;;;2082222;28;2049;-82
2021/12/01 05:42:26;;;;;;;;;;;;;;;;;;2091313;28;936;-82
2021/12/01 05:43:28;;;;;;;;;;;;;;;;;;2091235;28;1469;-82
2021/12/01 05:44:30;;;;;;;;;;;;;;;;;;2090870;28;1295;-82
2021/12/01 05:45:31;;;;;;;;;;;;;;;;;;2082412;28;2029;-82
2021/12/01 05:46:33;;;;;;;;;;;;;;;;;;2080016;28;1923;-83
2021/12/01 05:47:34;;;;;;;;;;;;;;;;;;2082755;28;1240;-82
2021/12/01 05:48:35;;;;;;;;;;;;;;;;;;2091243;28;1346;-82
2021/12/01 05:49:41;;;;;;;;;;;;;;;;;;2091675;28;905;-82
2021/12/01 05:50:43;;;;;;;;;;;;;;;;;;2082483;28;1861;-83
2021/12/01 05:51:44;;;;;;;;;;;;;;;;;;2082793;28;1189;-82
2021/12/01 05:52:45;;;;;;;;;;;;;;;;;;2091827;28;1338;-80
2021/12/01 05:53:47;;;;;;;;;;;;;;;;;;2090985;28;1392;-81
2021/12/01 05:54:50;;;;;;;;;;;;;;;;;;2082639;28;1238;-82
2021/12/01 05:55:52;;;;;;;;;;;;;;;;;;2082681;28;2049;-84
2021/12/01 05:56:53;;;;;;;;;;;;;;;;;;2091067;28;1540;-84
2021/12/01 05:57:56;;;;;;;;;;;;;;;;;;2090784;28;1461;-83
2021/12/01 05:58:58;;;;;;;;;;;;;;;;;;2091564;28;1118;-85
2021/12/01 05:59:59;;;;;;;;;;;;;;;;;;2091340;28;1345;-82
2021/12/01 06:01:01;;;;;;;;;;;;;;;;;;2086950;28;1818;-86
2021/12/01 06:02:02;;;;;;;;;;;;;;;;;;2091413;28;1354;-85
2021/12/01 06:03:04;;;;;;;;;;;;;;;;;;2090458;28;1366;-86
2021/12/01 06:04:05;;;;;;;;;;;;;;;;;;2078705;28;1477;-84
2021/12/01 06:05:07;;;;;;;;;;;;;;;;;;2091136;28;1906;-85
2021/12/01 06:06:09;;;;;;;;;;;;;;;;;;2090250;28;1709;-85
2021/12/01 06:07:12;;;;;;;;;;;;;;;;;;2090820;28;1396;-86
2021/12/01 06:08:13;;;;;;;;;;;;;;;;;;2090993;28;1409;-87
2021/12/01 06:09:15;;;;;;;;;;;;;;;;;;2082750;28;1033;-86
2021/12/01 06:10:16;;;;;;;;;;;;;;;;;;2082912;28;1260;-87
2021/12/01 06:11:19;;;;;;;;;;;;;;;;;;2082285;28;1840;-90
2021/12/01 06:12:19;;;;;;;;;;;;;;;;;;2075069;28;1377;-92
2021/12/01 06:13:24;;;;;;;;;;;;;;;;;;2066459;28;1460;-87
2021/12/01 06:14:25;;;;;;;;;;;;;;;;;;2074517;28;1296;-87
2021/12/01 06:15:27;;;;;;;;;;;;;;;;;;2074376;28;1320;-86
2021/12/01 06:16:28;;;;;;;;;;;;;;;;;;2096244;28;1957;-87
2021/12/01 06:17:29;;;;;;;;;;;;;;;;;;2097646;28;1268;-86
2021/12/01 06:18:33;;;;;;;;;;;;;;;;;;2091050;28;1394;-88
2021/12/01 06:19:34;;;;;;;;;;;;;;;;;;2090919;28;1257;-86
2021/12/01 06:20:36;;;;;;;;;;;;;;;;;;2066267;28;1708;-88
2021/12/01 06:21:38;;;;;;;;;;;;;;;;;;2066525;28;1217;-90
2021/12/01 06:22:39;;;;;;;;;;;;;;;;;;2074822;28;1247;-89
2021/12/01 06:23:41;;;;;;;;;;;;;;;;;;2074529;28;1195;-88
2021/12/01 06:24:41;;;;;;;;;;;;;;;;;;2082612;28;1195;-87
2021/12/01 06:25:43;;;;;;;;;;;;;;;;;;2074788;28;1922;-81
2021/12/01 06:26:45;;;;;;;;;;;;;;;;;;2082455;28;1314;-86
2021/12/01 06:27:46;;;;;;;;;;;;;;;;;;2082569;28;964;-86
2021/12/01 06:28:49;;;;;;;;;;;;;;;;;;2082976;28;1353;-86
2021/12/01 06:29:49;;;;;;;;;;;;;;;;;;2074335;28;1351;-86
2021/12/01 06:30:51;;;;;;;;;;;;;;;;;;2082811;28;1049;-86
2021/12/01 06:31:52;;;;;;;;;;;;;;;;;;2082378;28;1385;-85
2021/12/01 06:32:54;;;;;;;;;;;;;;;;;;2082702;28;1094;-86
2021/12/01 06:33:55;;;;;;;;;;;;;;;;;;2082679;28;1267;-86
2021/12/01 06:34:56;;;;;;;;;;;;;;;;;;2091001;28;1420;-85
2021/12/01 06:35:58;;;;;;;;;;;;;;;;;;2090997;28;1860;-85
2021/12/01 06:36:58;;;;;;;;;;;;;;;;;;2074390;28;1295;-85
2021/12/01 06:38:00;;;;;;;;;;;;;;;;;;2074132;28;1307;-87
2021/12/01 06:39:02;;;;;;;;;;;;;;;;;;2090781;28;1267;-85
2021/12/01 06:40:03;;;;;;;;;;;;;;;;;;2099140;28;987;-85
2021/12/01 06:41:05;;;;;;;;;;;;;;;;;;2082786;28;2095;-85
2021/12/01 06:42:06;;;;;;;;;;;;;;;;;;2082861;28;1386;-85
2021/12/01 06:43:08;;;;;;;;;;;;;;;;;;2074280;28;1459;-83
2021/12/01 06:44:10;;;;;;;;;;;;;;;;;;2089071;28;1300;-80
2021/12/01 06:45:12;;;;;;;;;;;;;;;;;;2082141;28;1911;-80
2021/12/01 06:46:14;;;;;;;;;;;;;;;;;;2085369;28;2004;-79
2021/12/01 06:47:16;;;;;;;;;;;;;;;;;;2082400;28;1381;-81
2021/12/01 06:48:18;;;;;;;;;;;;;;;;;;2082610;28;780;-81
2021/12/01 06:49:28;;;;;;;;;;;;;;;;;;2082961;28;820;-88
2021/12/01 06:50:28;;;;;;;;;;;;;;;;;;2088892;28;1555;-88
2021/12/01 06:51:30;;;;;;;;;;;;;;;;;;2092104;28;1663;-89
2021/12/01 06:52:31;;;;;;;;;;;;;;;;;;2099288;28;1309;-88
2021/12/01 06:53:33;;;;;;;;;;;;;;;;;;2091023;28;1210;-88
2021/12/01 06:54:34;;;;;;;;;;;;;;;;;;2090935;28;1321;-89
2021/12/01 06:55:35;;;;;;;;;;;;;;;;;;2090318;28;1199;-87
2021/12/01 06:56:36;;;;;;;;;;;;;;;;;;2083019;28;943;-87
2021/12/01 06:57:38;;;;;;;;;;;;;;;;;;2082764;28;1322;-87
2021/12/01 06:58:40;;;;;;;;;;;;;;;;;;2074171;28;1215;-87
2021/12/01 06:59:42;;;;;;;;;;;;;;;;;;2074956;28;1706;-88
2021/12/01 07:00:43;;;;;;;;;;;;;;;;;;2078428;28;1664;-87
2021/12/01 07:01:50;;;;;;;;;;;;;;;;;;2082527;28;1229;-88
2021/12/01 07:02:52;;;;;;;;;;;;;;;;;;2075755;28;1259;-89
2021/12/01 07:03:53;;;;;;;;;;;;;;;;;;2074558;28;1398;-88
2021/12/01 07:04:54;;;;;;;;;;;;;;;;;;2091045;28;1193;-88
2021/12/01 07:05:56;;;;;;;;;;;;;;;;;;2098363;28;1980;-87
2021/12/01 07:06:58;;;;;;;;;;;;;;;;;;2082775;28;1221;-90
2021/12/01 07:07:59;;;;;;;;;;;;;;;;;;2099390;28;1293;-88
2021/12/01 07:09:01;;;;;;;;;;;;;;;;;;2098896;28;1241;-89
2021/12/01 07:10:02;;;;;;;;;;;;;;;;;;2099675;28;1298;-89
2021/12/01 07:11:04;;;;;;;;;;;;;;;;;;2094698;28;2039;-88
2021/12/01 07:12:06;;;;;;;;;;;;;;;;;;2074739;28;1408;-89
2021/12/01 07:13:07;;;;;;;;;;;;;;;;;;2074554;28;1238;-89
2021/12/01 07:14:33;;;;;;;;;;;;;;;;;;2074419;28;1203;-90
2021/12/01 07:15:39;;;;;;;;;;;;;;;;;;2074964;28;1213;-89
2021/12/01 07:16:40;;;;;;;;;;;;;;;;;;2074526;28;1258;-94
2021/12/01 07:17:42;;;;;;;;;;;;;;;;;;2074521;28;1183;-88
2021/12/01 07:18:43;;;;;;;;;;;;;;;;;;2082638;28;1213;-89
2021/12/01 07:19:51;;;;;;;;;;;;;;;;;;2082376;28;1088;-89
2021/12/01 07:20:51;;;;;;;;;;;;;;;;;;2084600;28;1878;-89
2021/12/01 07:21:53;;;;;;;;;;;;;;;;;;2082498;28;1345;-89
2021/12/01 07:22:54;;;;;;;;;;;;;;;;;;2074527;28;1227;-89
2021/12/01 07:23:59;;;;;;;;;;;;;;;;;;2074375;28;1314;-91